KFKN/FKN METAR and TAF weather

Enter ICAO airport designator
Station Type Date Time Source
KFKN METAR 2020/01/19 23:15 UTC NOAA

KFKN 192315Z AUTO 32005KT 10SM CLR 07/M06 A2998 RMK AO2 T00661056


Station Type Date Time Source
KFKN Decoded METAR 2020/01/19 23:15 UTC NOAA

Franklin / J B Rose, VA, United States (KFKN) 36-42N 076-54W
Jan 19, 2020 - 06:15 PM EST / 2020.01.19 2315 UTC
Wind: from the NW (320 degrees) at 6 MPH (5 KT):0
Visibility: 10 mile(s):0
Sky conditions: clear
Temperature: 43.9 F (6.6 C)
Dew Point: 21.9 F (-5.6 C)
Relative Humidity: 41%
Pressure (altimeter): 29.98 in. Hg (1015 hPa)
ob: KFKN 192315Z AUTO 32005KT 10SM CLR 07/M06 A2998 RMK AO2 T00661056
cycle: 23

Station Type Date Time Source
KFKN TAF UTC NOAA

Error!

Example: see airport list